La Porte, California
Current Conditions -  °F | °C
As of 2:52 AM on Friday 31 Oct 2014 (Local Time) from KBLU Reporting Station
Clear Clear  
Wind Chill: 43°   Ceiling: Unl
Heat Index: 43°   Visibility: 10mi
Dew Point: 38°   Wind: 0mph
Humidity: 82%   Direction: NA
Pressure: 30"   Gusts: NA
Location:  39.6938°N, 121.001°W
Report Text: KBLU 310952Z AUTO 00000KT 10SM CLR 06/03 A3000 RMK AO2 SLP109 T00610033
Loading
Personal Weather Stations






























Interactive Weather Map
Tropical Storm Tracking
New forecast layout! Learn more

10-Day Weather Forecast

Advertisements
Track Severe Weather on mobile